Sevierville, TN (37862)

5:00 PM EDT on September 04, 2015 (GMT -0400)
APRSWXNET | | Change Station
CLOSE
Current Station
Personal Weather Station
Location: Sevierville, TN
Elevation: 1184 ft
Nearby Weather Stations

Elev 1184 ft 35.88 °N, 83.56 °W | Updated 23 minutes ago

Clear
Clear
90 °F
Feels Like 90 °F
N
1
Wind Variable Wind from NE
Gusts 0.0 mph

Today
High -- | Low -- °F
--% Chance of Precip.
Yesterday
High -- | Low -- °F
Precip. -- in
7:08 AM 7:57 PM
Waning Gibbous, 56% visible
Pressure 29.96 in
Visibility 10.0 miles
Clouds Few 5000 ft
Heat Index 90 °F
Dew Point 61 °F
Humidity 38%
Rainfall in
Snow Depth Not available.
UV 4 out of 12
Pollen 9.70 out of 12
Air Quality Not available.
Flu Activity Not available.
METAR KTYS 042053Z COR 06009KT 10SM FEW050 33/17 A2999 RMK AO2 CB DSNT NE-SE SLP144 T03280167 58015 $
Pressure 29.96 in
Visibility 10.0 miles
Clouds Few 5000 ft
Heat Index 90 °F
Dew Point 61 °F
Humidity 38%
Rainfall in
Snow Depth Not available.
UV 4 out of 12
Pollen 9.70 out of 12
Air Quality Not available.
Flu Activity Not available.
METAR KTYS 042053Z COR 06009KT 10SM FEW050 33/17 A2999 RMK AO2 CB DSNT NE-SE SLP144 T03280167 58015 $

10-Day Weather Forecast

×

Almanac

Astronomy

Sep. 04, 2015 Rise Set
Actual Time
Civil Twilight
Nautical Twilight
Astronomical Twilight
Moon
Length of Visible Light
Length of Day
Tomorrow will be .
, % of the Moon is Illuminated

Today's Extremes

State Highs State Lows

Community

WunderPhotos

Upload Photos

1,852,290 photos uploaded!

WunderBlogs® & News

Nearby

Air Quality

  Air Quality AQ Index Pollutant
Not available.

Snow Depth

Station Depth Elevation

Earthquake Activity

City Distance Mag. Time & Date
Minimum magnitude displayed is 2.5.

Coastal Water Temperatures

Place Temperature

Stations

Nearby Weather Stations

Station Location Temp. Windchill Dew Point Humidity Wind Precip. Elev Updated Type